Terminal Aerodrome Forecast
Issued by NWS North Platte, NE

Home | Current Version | Previous Version | Graphics & Text | Print | Product List | Glossary On
Versions: 1 2 3 4 5 6 7 8 9 10 11 12 13 14
000
FTUS43 KLBF 281700
TAFVTN
TAF
KVTN 281725Z 2818/2918 30012G20KT P6SM SCT250
     FM282000 32022G30KT P6SM BKN100
     FM290300 34020G29KT P6SM OVC050
     FM290600 33018G26KT P6SM OVC025
     FM291500 33012KT P6SM SCT025=

USA.gov is the U.S. government's official web portal to all federal, state and local government web resources and services.